createdAt,value
2016-07-30T00:00:55.614Z,46.8
2016-07-30T00:01:54.912Z,47.19
2016-07-30T00:02:54.921Z,46.89
2016-07-30T00:03:54.924Z,47.38
2016-07-30T00:04:54.928Z,47.28
2016-07-30T00:05:55.645Z,47.28
2016-07-30T00:07:54.948Z,46.99
2016-07-30T00:08:54.965Z,47.28
2016-07-30T00:09:55.671Z,46.8
2016-07-30T00:10:55.674Z,46.8
2016-07-30T00:11:54.973Z,47.28
2016-07-30T00:12:54.977Z,46.99
2016-07-30T00:13:54.985Z,46.6
2016-07-30T00:14:54.990Z,46.99
2016-07-30T00:15:56.302Z,46.89
2016-07-30T00:16:55.710Z,46.89
2016-07-30T00:17:55.717Z,47.09
2016-07-30T00:18:55.724Z,46.89
2016-07-30T00:20:55.787Z,46.6
2016-07-30T00:21:55.034Z,46.89
2016-07-30T00:22:55.041Z,46.99
2016-07-30T00:23:55.046Z,46.89
2016-07-30T00:24:56.517Z,47.09
2016-07-30T00:25:55.767Z,47.19
2016-07-30T00:26:56.073Z,46.8
2016-07-30T00:27:55.071Z,46.8
2016-07-30T00:28:55.127Z,47.19
2016-07-30T00:29:55.790Z,47.19
2016-07-30T00:30:55.091Z,46.89
2016-07-30T00:31:55.093Z,46.7
2016-07-30T00:32:55.809Z,47.47
2016-07-30T00:33:55.815Z,47.57
2016-07-30T00:34:55.112Z,47.86
2016-07-30T00:35:56.240Z,47.57
2016-07-30T00:36:55.832Z,48.25
2016-07-30T00:37:55.888Z,47.47
2016-07-30T00:38:55.138Z,47.67
2016-07-30T00:39:55.142Z,47.47
2016-07-30T00:40:55.148Z,47.67
2016-07-30T00:41:55.861Z,47.38
2016-07-30T00:42:55.160Z,47.47
2016-07-30T00:43:55.168Z,47.57
2016-07-30T00:44:55.172Z,47.57
2016-07-30T00:45:55.180Z,46.99
2016-07-30T00:46:56.237Z,46.99
2016-07-30T00:47:55.901Z,47.38
2016-07-30T00:48:56.055Z,47.57
2016-07-30T00:49:55.910Z,47.36
2016-07-30T00:50:55.915Z,47.16
2016-07-30T00:51:55.216Z,47.36
2016-07-30T00:52:55.929Z,47.28
2016-07-30T00:53:55.935Z,47.19
2016-07-30T00:54:55.989Z,46.99
2016-07-30T00:55:55.241Z,47.16
2016-07-30T00:56:55.244Z,46.89
2016-07-30T00:57:56.753Z,47.09
2016-07-30T00:58:55.961Z,47.19
2016-07-30T00:59:55.969Z,46.77
2016-07-30T01:00:55.267Z,47.16
2016-07-30T01:01:55.274Z,47.55
2016-07-30T01:02:55.279Z,47.26
2016-07-30T01:03:55.283Z,47.16
2016-07-30T01:04:55.998Z,46.89
2016-07-30T01:05:56.002Z,46.58
2016-07-30T01:06:56.009Z,46.99
2016-07-30T01:07:55.312Z,47.28
2016-07-30T01:08:56.319Z,47.19
2016-07-30T01:09:56.023Z,47.36
2016-07-30T01:10:56.031Z,46.87
2016-07-30T01:11:56.044Z,47.26
2016-07-30T01:12:56.945Z,47.38
2016-07-30T01:13:56.050Z,47.16
2016-07-30T01:14:55.347Z,47.38
2016-07-30T01:15:56.061Z,47.36
2016-07-30T01:16:55.359Z,47.26
2016-07-30T01:17:56.072Z,47.09
2016-07-30T01:18:56.078Z,46.89
2016-07-30T01:19:56.088Z,46.8
2016-07-30T01:20:55.382Z,46.99
2016-07-30T01:21:56.930Z,46.8
2016-07-30T01:22:55.394Z,46.89
2016-07-30T01:23:55.398Z,46.89
2016-07-30T01:24:55.456Z,46.99
2016-07-30T01:25:56.121Z,46.99
2016-07-30T01:26:56.123Z,46.89
2016-07-30T01:27:55.422Z,46.8
2016-07-30T01:28:55.430Z,46.89
2016-07-30T01:29:56.143Z,47.16
2016-07-30T01:30:55.444Z,47.36
2016-07-30T01:31:56.156Z,46.89
2016-07-30T01:32:56.940Z,47.09
2016-07-30T01:33:56.169Z,46.8
2016-07-30T01:34:56.574Z,46.8
2016-07-30T01:35:56.179Z,46.89
2016-07-30T01:36:56.186Z,46.89
2016-07-30T01:37:56.193Z,46.99
2016-07-30T01:38:56.197Z,47.28
2016-07-30T01:39:56.205Z,47.47
2016-07-30T01:40:56.210Z,47.16
2016-07-30T01:41:55.507Z,47.45
2016-07-30T01:42:55.511Z,47.09
2016-07-30T01:43:57.229Z,47.16
2016-07-30T01:44:55.524Z,46.89
2016-07-30T01:45:56.240Z,47.19
2016-07-30T01:46:55.538Z,46.99
2016-07-30T01:47:56.250Z,46.89
2016-07-30T01:48:55.552Z,46.89
2016-07-30T01:49:55.553Z,47.28
2016-07-30T01:50:56.269Z,46.99
2016-07-30T01:51:56.275Z,47.06
2016-07-30T01:52:56.279Z,47.36
2016-07-30T01:53:56.285Z,47.47
2016-07-30T01:54:56.890Z,47.45
2016-07-30T01:55:55.593Z,46.87
2016-07-30T01:56:55.693Z,47.26
2016-07-30T01:57:56.309Z,46.8
2016-07-30T01:58:56.316Z,46.97
2016-07-30T01:59:56.322Z,47.55
2016-07-30T02:00:56.326Z,47.16
2016-07-30T02:01:55.627Z,46.87
2016-07-30T02:02:55.632Z,46.97
2016-07-30T02:03:55.637Z,47.16
2016-07-30T02:04:56.349Z,47.55
2016-07-30T02:05:55.849Z,47.26
2016-07-30T02:06:56.362Z,46.87
2016-07-30T02:07:55.661Z,46.97
2016-07-30T02:08:56.371Z,47.55
2016-07-30T02:09:56.378Z,47.26
2016-07-30T02:10:56.385Z,47.36
2016-07-30T02:11:56.389Z,47.16
2016-07-30T02:12:56.394Z,47.26
2016-07-30T02:13:56.400Z,47.06
2016-07-30T02:14:56.414Z,46.87
2016-07-30T02:15:55.705Z,47.16
2016-07-30T02:16:56.418Z,46.87
2016-07-30T02:17:55.715Z,47.16
2016-07-30T02:18:56.844Z,46.97
2016-07-30T02:19:55.728Z,46.87
2016-07-30T02:20:55.734Z,46.99
2016-07-30T02:21:55.739Z,46.97
2016-07-30T02:22:55.747Z,46.77
2016-07-30T02:23:56.462Z,46.87
2016-07-30T02:24:55.758Z,46.97
2016-07-30T02:25:56.469Z,46.67
2016-07-30T02:26:56.475Z,46.77
2016-07-30T02:27:55.774Z,46.87
2016-07-30T02:28:55.779Z,47.06
2016-07-30T02:29:57.591Z,46.77
2016-07-30T02:30:56.500Z,46.67
2016-07-30T02:31:55.845Z,46.77
2016-07-30T02:32:56.511Z,46.97
2016-07-30T02:33:55.807Z,46.87
2016-07-30T02:34:56.520Z,46.87
2016-07-30T02:35:56.525Z,47.16
2016-07-30T02:36:55.822Z,46.97
2016-07-30T02:37:55.844Z,47.06
2016-07-30T02:38:55.835Z,46.87
2016-07-30T02:39:56.550Z,46.77
2016-07-30T02:40:56.407Z,46.67
2016-07-30T02:41:55.853Z,46.87
2016-07-30T02:42:56.566Z,46.77
2016-07-30T02:43:56.572Z,46.87
2016-07-30T02:44:55.869Z,46.87
2016-07-30T02:45:56.584Z,46.87
2016-07-30T02:46:55.882Z,47.16
2016-07-30T02:47:56.595Z,47.16
2016-07-30T02:48:55.893Z,46.97
2016-07-30T02:49:57.159Z,46.87
2016-07-30T02:50:56.610Z,46.67
2016-07-30T02:51:56.010Z,47.06
2016-07-30T02:52:55.920Z,46.97
2016-07-30T02:53:56.630Z,46.77
2016-07-30T02:54:55.926Z,47.06
2016-07-30T02:55:56.641Z,46.97
2016-07-30T02:56:56.645Z,46.87
2016-07-30T02:57:56.653Z,46.77
2016-07-30T02:58:56.708Z,46.97
2016-07-30T02:59:55.955Z,46.87
2016-07-30T03:00:57.020Z,46.58
2016-07-30T03:01:55.968Z,46.97
2016-07-30T03:02:56.680Z,46.87
2016-07-30T03:03:56.689Z,46.97
2016-07-30T03:04:55.988Z,47.16
2016-07-30T03:05:56.699Z,46.97
2016-07-30T03:06:55.997Z,46.77
2016-07-30T03:07:56.052Z,46.97
2016-07-30T03:08:56.718Z,46.19
2016-07-30T03:09:56.722Z,47.16
2016-07-30T03:10:56.729Z,47.06
2016-07-30T03:11:56.879Z,47.16
2016-07-30T03:12:56.041Z,47.26
2016-07-30T03:13:56.744Z,46.67
2016-07-30T03:14:56.751Z,46.29
2016-07-30T03:15:56.053Z,46.87
2016-07-30T03:16:56.763Z,46.67
2016-07-30T03:17:56.068Z,46.67
2016-07-30T03:18:56.777Z,46.97
2016-07-30T03:19:56.075Z,46.97
2016-07-30T03:20:56.081Z,47.26
2016-07-30T03:21:56.794Z,47.26
2016-07-30T03:22:56.800Z,46.97
2016-07-30T03:23:56.099Z,47.16
2016-07-30T03:24:56.105Z,47.36
2016-07-30T03:25:56.820Z,46.87
2016-07-30T03:26:56.118Z,46.77
2016-07-30T03:27:56.120Z,46.97
2016-07-30T03:28:56.837Z,46.87
2016-07-30T03:29:56.133Z,46.87
2016-07-30T03:30:56.849Z,46.97
2016-07-30T03:31:56.854Z,47.36
2016-07-30T03:32:56.858Z,46.67
2016-07-30T03:33:56.866Z,47.16
2016-07-30T03:34:56.872Z,47.04
2016-07-30T03:35:56.219Z,46.87
2016-07-30T03:36:56.177Z,46.67
2016-07-30T03:37:56.887Z,46.77
2016-07-30T03:38:56.894Z,46.97
2016-07-30T03:39:56.898Z,46.67
2016-07-30T03:40:56.200Z,46.97
2016-07-30T03:41:56.912Z,46.77
2016-07-30T03:42:56.915Z,47.36
2016-07-30T03:43:56.218Z,46.84
2016-07-30T03:44:56.925Z,47.81
2016-07-30T03:45:56.935Z,47.52
2016-07-30T03:46:57.989Z,47.06
2016-07-30T03:47:56.945Z,46.84
2016-07-30T03:48:56.242Z,46.87
2016-07-30T03:49:56.953Z,46.87
2016-07-30T03:50:56.252Z,47.36
2016-07-30T03:51:56.257Z,46.87
2016-07-30T03:53:56.986Z,46.77
2016-07-30T03:54:56.983Z,47.06
2016-07-30T03:55:56.988Z,46.87
2016-07-30T03:56:56.995Z,46.87
2016-07-30T03:57:56.294Z,47.14
2016-07-30T03:58:57.005Z,47.36
2016-07-30T03:59:56.304Z,47.24
2016-07-30T04:00:57.016Z,46.77
2016-07-30T04:01:56.315Z,46.77
2016-07-30T04:02:57.026Z,46.77
2016-07-30T04:03:56.327Z,46.66
2016-07-30T04:04:57.039Z,46.87
2016-07-30T04:05:57.042Z,46.87
2016-07-30T04:06:58.024Z,47.16
2016-07-30T04:07:56.412Z,47.24
2016-07-30T04:08:57.761Z,47.62
2016-07-30T04:09:56.360Z,46.97
2016-07-30T04:10:57.070Z,46.77
2016-07-30T04:11:56.370Z,47.06
2016-07-30T04:12:56.376Z,46.84
2016-07-30T04:13:56.383Z,47.62
2016-07-30T04:14:57.095Z,47.33
2016-07-30T04:15:56.394Z,47.33
2016-07-30T04:16:57.103Z,47.33
2016-07-30T04:17:56.404Z,47.26
2016-07-30T04:18:57.114Z,47.04
2016-07-30T04:19:57.722Z,46.77
2016-07-30T04:20:57.123Z,46.87
2016-07-30T04:21:57.129Z,47.04
2016-07-30T04:23:56.436Z,46.94
2016-07-30T04:24:56.439Z,47.33
2016-07-30T04:25:56.445Z,47.14
2016-07-30T04:26:57.205Z,46.97
2016-07-30T04:27:56.456Z,47.14
2016-07-30T04:28:56.463Z,47.52
2016-07-30T04:29:56.472Z,47.62
2016-07-30T04:30:57.272Z,47.52
2016-07-30T04:31:56.479Z,48.11
2016-07-30T04:32:57.188Z,48.01
2016-07-30T04:33:56.493Z,47.14
2016-07-30T04:34:56.490Z,48.11
2016-07-30T04:35:57.256Z,47.62
2016-07-30T04:36:57.213Z,47.33
2016-07-30T04:38:57.220Z,47.45
2016-07-30T04:39:58.185Z,47.33
2016-07-30T04:40:56.524Z,47.62
2016-07-30T04:41:57.239Z,47.24
2016-07-30T04:42:57.250Z,47.24
2016-07-30T04:43:57.246Z,47.43
2016-07-30T04:44:57.258Z,48.11
2016-07-30T04:45:56.551Z,47.72
2016-07-30T04:46:57.263Z,47.72
2016-07-30T04:47:56.562Z,47.43
2016-07-30T04:48:57.272Z,48.11
2016-07-30T04:49:57.277Z,48.01
2016-07-30T04:50:58.385Z,47.52
2016-07-30T04:51:56.582Z,47.81
2016-07-30T04:52:57.339Z,46.84
2016-07-30T04:53:57.300Z,47.16
2016-07-30T04:55:56.604Z,47.62
2016-07-30T04:56:57.319Z,47.16
2016-07-30T04:57:57.321Z,46.97
2016-07-30T04:58:56.622Z,47.04
2016-07-30T04:59:56.626Z,46.94
2016-07-30T05:00:57.338Z,46.94
2016-07-30T05:01:58.245Z,47.14
2016-07-30T05:02:56.641Z,47.04
2016-07-30T05:03:57.250Z,47.16
2016-07-30T05:04:56.664Z,47.36
2016-07-30T05:05:56.657Z,47.33
2016-07-30T05:06:57.371Z,47.36
2016-07-30T05:07:56.669Z,47.43
2016-07-30T05:08:56.729Z,46.97
2016-07-30T05:09:57.400Z,47.33
2016-07-30T05:10:57.393Z,47.04
2016-07-30T05:11:57.397Z,47.14
2016-07-30T05:12:57.748Z,47.55
2016-07-30T05:13:57.410Z,47.24
2016-07-30T05:14:57.411Z,47.04
2016-07-30T05:15:57.422Z,46.84
2016-07-30T05:16:56.729Z,47.24
2016-07-30T05:17:56.776Z,47.33
2016-07-30T05:18:56.731Z,47.52
2016-07-30T05:19:57.445Z,47.24
2016-07-30T05:20:56.743Z,47.45
2016-07-30T05:21:56.747Z,46.84
2016-07-30T05:22:57.459Z,46.87
2016-07-30T05:23:57.865Z,47.16
2016-07-30T05:24:57.470Z,46.97
2016-07-30T05:25:57.478Z,46.84
2016-07-30T05:26:57.483Z,47.16
2016-07-30T05:27:56.782Z,46.77
2016-07-30T05:28:57.494Z,46.94
2016-07-30T05:29:57.550Z,46.94
2016-07-30T05:30:56.798Z,47.33
2016-07-30T05:31:56.804Z,47.62
2016-07-30T05:32:57.523Z,46.66
2016-07-30T05:33:57.527Z,47.16
2016-07-30T05:34:58.529Z,46.29
2016-07-30T05:35:56.880Z,46.39
2016-07-30T05:36:57.383Z,46.39
2016-07-30T05:37:57.546Z,46.48
2016-07-30T05:38:57.552Z,46.48
2016-07-30T05:39:56.850Z,46.39
2016-07-30T05:40:56.855Z,46.29
2016-07-30T05:41:56.865Z,46.39
2016-07-30T05:42:56.867Z,45.61
2016-07-30T05:43:57.579Z,45.61
2016-07-30T05:44:57.587Z,45.25
2016-07-30T05:45:57.839Z,46.02
2016-07-30T05:46:57.616Z,45.34
2016-07-30T05:47:57.648Z,45.61
2016-07-30T05:48:56.905Z,46
2016-07-30T05:49:57.618Z,45.32
2016-07-30T05:50:56.915Z,45.42
2016-07-30T05:51:57.629Z,45.51
2016-07-30T05:52:57.635Z,46.22
2016-07-30T05:53:57.640Z,45.61
2016-07-30T05:54:57.650Z,45.51
2016-07-30T05:55:56.950Z,45.54
2016-07-30T05:56:57.960Z,45.54
2016-07-30T05:57:56.961Z,45.44
2016-07-30T05:58:57.679Z,45.25
2016-07-30T05:59:57.685Z,45.25
2016-07-30T06:00:57.689Z,45.25
2016-07-30T06:01:56.989Z,45.25
2016-07-30T06:02:56.992Z,45.44
2016-07-30T06:03:57.708Z,45.13
2016-07-30T06:04:57.712Z,44.86
2016-07-30T06:05:57.012Z,45.25
2016-07-30T06:06:57.729Z,45.34
2016-07-30T06:07:58.484Z,45.05
2016-07-30T06:08:57.739Z,45.05
2016-07-30T06:09:57.389Z,44.18
2016-07-30T06:10:57.753Z,44.49
2016-07-30T06:11:57.760Z,44.2
2016-07-30T06:12:57.767Z,44.1
2016-07-30T06:13:57.774Z,44.01
2016-07-30T06:14:57.780Z,44.4
2016-07-30T06:15:57.789Z,44.1
2016-07-30T06:16:57.803Z,44.4
2016-07-30T06:17:57.147Z,43.62
2016-07-30T06:18:58.714Z,43.91
2016-07-30T06:19:57.819Z,43.52
2016-07-30T06:20:57.619Z,43.06
2016-07-30T06:21:57.834Z,42.86
2016-07-30T06:22:57.841Z,42.48
2016-07-30T06:23:57.143Z,42.6
2016-07-30T06:24:57.860Z,42.4
2016-07-30T06:25:57.160Z,42.3
2016-07-30T06:26:57.170Z,42.4
2016-07-30T06:27:57.180Z,42.79
2016-07-30T06:28:57.892Z,42.4
2016-07-30T06:29:58.805Z,41.84
2016-07-30T06:30:57.910Z,41.64
2016-07-30T06:31:57.920Z,41.74
2016-07-30T06:32:57.222Z,41.26
2016-07-30T06:33:57.378Z,41.55
2016-07-30T06:34:57.239Z,41.45
2016-07-30T06:35:57.957Z,41.45
2016-07-30T06:36:57.966Z,41.55
2016-07-30T06:37:57.270Z,41.55
2016-07-30T06:38:57.984Z,41.16
2016-07-30T06:39:57.290Z,40.87
2016-07-30T06:40:57.299Z,41.77
2016-07-30T06:41:58.013Z,41.08
2016-07-30T06:42:58.273Z,41.28
2016-07-30T06:43:58.034Z,41.06
2016-07-30T06:44:58.044Z,40.41
2016-07-30T06:45:57.346Z,40.6
2016-07-30T06:46:57.355Z,40.21
2016-07-30T06:47:58.124Z,39.84
2016-07-30T06:48:58.084Z,40.23
2016-07-30T06:49:57.387Z,40.23
2016-07-30T06:50:58.118Z,39.94
2016-07-30T06:51:59.245Z,39.94
2016-07-30T06:52:57.419Z,39.94
2016-07-30T06:53:58.240Z,40.11
2016-07-30T06:55:12.320Z,41.67
2016-07-30T06:55:57.451Z,41.38
2016-07-30T06:56:58.168Z,41.16
2016-07-30T06:57:57.469Z,41.57
2016-07-30T06:58:57.486Z,41.64
2016-07-30T06:59:58.196Z,41.64
2016-07-30T07:00:57.500Z,41.64
2016-07-30T07:01:57.508Z,41.92
2016-07-30T07:02:58.731Z,42.69
2016-07-30T07:03:58.232Z,42.69
2016-07-30T07:04:58.543Z,42.6
2016-07-30T07:05:57.541Z,42.4
2016-07-30T07:06:58.260Z,42.21
2016-07-30T07:07:57.558Z,42.89
2016-07-30T07:08:58.275Z,42.6
2016-07-30T07:09:57.576Z,42.86
2016-07-30T07:10:58.289Z,42.77
2016-07-30T07:11:58.297Z,43.35
2016-07-30T07:12:58.304Z,43.06
2016-07-30T07:13:59.362Z,43.33
2016-07-30T07:14:57.614Z,43.13
2016-07-30T07:15:58.266Z,43.62
2016-07-30T07:16:58.329Z,43.16
2016-07-30T07:17:58.337Z,43.35
2016-07-30T07:18:58.345Z,42.86
2016-07-30T07:19:58.366Z,43.16
2016-07-30T07:20:58.361Z,43.45
2016-07-30T07:21:58.366Z,43.52
2016-07-30T07:22:57.663Z,43.84
2016-07-30T07:23:58.379Z,43.62
2016-07-30T07:24:58.782Z,43.72
2016-07-30T07:25:58.393Z,43.52
2016-07-30T07:26:58.551Z,43.33
2016-07-30T07:27:58.410Z,43.84
2016-07-30T07:28:57.709Z,43.62
2016-07-30T07:29:58.425Z,44.01
2016-07-30T07:30:58.426Z,44.01
2016-07-30T07:31:58.434Z,43.52
2016-07-30T07:32:58.437Z,43.72
2016-07-30T07:33:58.447Z,43.54
2016-07-30T07:34:58.452Z,43.54
2016-07-30T07:35:58.907Z,43.54
2016-07-30T07:36:58.468Z,44.01
2016-07-30T07:37:58.465Z,44.2
2016-07-30T07:38:57.925Z,44.2
2016-07-30T07:39:58.535Z,44.01
2016-07-30T07:40:58.493Z,44.01
2016-07-30T07:41:58.498Z,44.01
2016-07-30T07:42:57.852Z,44.1
2016-07-30T07:43:58.514Z,44.01
2016-07-30T07:44:57.810Z,44.4
2016-07-30T07:45:57.818Z,43.43
2016-07-30T07:46:59.635Z,44.1
2016-07-30T07:47:58.538Z,44.1
2016-07-30T07:48:58.544Z,43.91
2016-07-30T07:49:58.551Z,43.91
2016-07-30T07:50:57.852Z,44.4
2016-07-30T07:51:58.564Z,44.49
2016-07-30T07:52:58.569Z,44.01
2016-07-30T07:53:58.582Z,44.01
2016-07-30T07:54:57.882Z,44.01
2016-07-30T07:55:57.885Z,43.62
2016-07-30T07:56:57.891Z,43.82
2016-07-30T07:57:57.897Z,43.43
2016-07-30T07:58:57.901Z,43.43
2016-07-30T07:59:58.921Z,43.52
2016-07-30T08:00:58.624Z,43.62
2016-07-30T08:01:57.920Z,43.43
2016-07-30T08:02:57.935Z,43.72
2016-07-30T08:03:57.934Z,43.43
2016-07-30T08:04:58.649Z,43.62
2016-07-30T08:05:58.656Z,43.82
2016-07-30T08:06:57.952Z,43.72
2016-07-30T08:07:57.961Z,43.62
2016-07-30T08:08:57.966Z,43.13
2016-07-30T08:09:57.975Z,43.43
2016-07-30T08:10:58.980Z,43.62
2016-07-30T08:11:58.692Z,43.43
2016-07-30T08:12:58.700Z,43.5
2016-07-30T08:13:57.997Z,43.43
2016-07-30T08:14:58.712Z,43.23
2016-07-30T08:15:58.011Z,43.04
2016-07-30T08:16:58.722Z,43.33
2016-07-30T08:17:58.732Z,43.52
2016-07-30T08:18:58.031Z,43.33
2016-07-30T08:19:59.234Z,43.52
2016-07-30T08:20:58.044Z,43.33
2016-07-30T08:21:58.907Z,43.23
2016-07-30T08:22:58.056Z,43.23
2016-07-30T08:24:58.774Z,43.04
2016-07-30T08:25:58.781Z,43.62
2016-07-30T08:26:58.787Z,43.43
2016-07-30T08:27:58.794Z,43.04
2016-07-30T08:28:58.801Z,43.43
2016-07-30T08:29:58.101Z,44.2
2016-07-30T08:30:58.119Z,44.4
2016-07-30T08:31:58.113Z,43.33
2016-07-30T08:32:59.026Z,44.3
2016-07-30T08:33:58.133Z,43.91
2016-07-30T08:34:58.839Z,43.72
2016-07-30T08:35:58.844Z,43.43
2016-07-30T08:36:58.851Z,43.91
2016-07-30T08:37:58.857Z,44.01
2016-07-30T08:39:58.361Z,44.01
2016-07-30T08:40:58.925Z,44.1
2016-07-30T08:41:58.185Z,44.1
2016-07-30T08:42:58.941Z,44.01
2016-07-30T08:43:59.091Z,44.3
2016-07-30T08:44:58.195Z,43.72
2016-07-30T08:45:58.199Z,43.52
2016-07-30T08:46:58.913Z,43.91
2016-07-30T08:47:58.920Z,44.37
2016-07-30T08:48:58.221Z,43.89
2016-07-30T08:49:58.933Z,44.09
2016-07-30T08:50:58.231Z,44.1
2016-07-30T08:51:58.945Z,44.1
2016-07-30T08:52:59.396Z,44.18
2016-07-30T08:55:58.972Z,44.27
2016-07-30T08:56:58.265Z,44.01
2016-07-30T08:57:58.276Z,43.33
2016-07-30T08:58:58.988Z,43.72
2016-07-30T08:59:58.286Z,43.43
2016-07-30T09:00:58.998Z,42.94
2016-07-30T09:01:59.015Z,44.1
2016-07-30T09:02:59.014Z,44.01
2016-07-30T09:03:59.960Z,44.1
2016-07-30T09:04:59.027Z,43.91
2016-07-30T09:05:59.733Z,44.2
2016-07-30T09:06:59.043Z,43.23
2016-07-30T09:07:58.334Z,43.72
2016-07-30T09:09:58.351Z,43.43
2016-07-30T09:10:59.064Z,43.23
2016-07-30T09:11:59.081Z,43.62
2016-07-30T09:12:59.077Z,44.1
2016-07-30T09:13:58.377Z,44.01
2016-07-30T09:14:58.384Z,44.2
2016-07-30T09:15:58.390Z,43.43
2016-07-30T09:16:59.855Z,44.1
2016-07-30T09:17:58.402Z,44.01
2016-07-30T09:18:59.112Z,43.91
2016-07-30T09:19:58.414Z,43.62
2016-07-30T09:20:58.421Z,44.1
2016-07-30T09:21:58.426Z,44.01
2016-07-30T09:22:59.140Z,43.91
2016-07-30T09:23:59.144Z,43.82
2016-07-30T09:24:58.446Z,44.1
2016-07-30T09:25:59.975Z,43.72
2016-07-30T09:26:58.458Z,43.62
2016-07-30T09:27:59.772Z,44.2
2016-07-30T09:28:58.472Z,44.01
2016-07-30T09:29:58.478Z,44.01
2016-07-30T09:30:59.190Z,44.01
2016-07-30T09:31:59.199Z,44.49
2016-07-30T09:32:59.204Z,44.37
2016-07-30T09:33:59.211Z,44.27
2016-07-30T09:34:59.215Z,44.37
2016-07-30T09:35:58.516Z,44.47
2016-07-30T09:37:00.201Z,44.96
2016-07-30T09:37:58.527Z,45.05
2016-07-30T09:38:58.531Z,44.76
2016-07-30T09:39:58.540Z,44.76
2016-07-30T09:40:58.553Z,44.86
2016-07-30T09:41:59.265Z,44.47
2016-07-30T09:42:58.557Z,44.4
2016-07-30T09:43:58.618Z,44.68
2016-07-30T09:44:58.570Z,44.4
2016-07-30T09:45:59.332Z,44.3
2016-07-30T09:46:58.580Z,44.88
2016-07-30T09:48:00.188Z,44.67
2016-07-30T09:48:58.606Z,44.4
2016-07-30T09:49:58.650Z,44.59
2016-07-30T09:50:59.315Z,44.88
2016-07-30T09:51:59.318Z,44.59
2016-07-30T09:52:59.325Z,44.76
2016-07-30T09:53:59.385Z,44.96
2016-07-30T09:54:58.630Z,45.15
2016-07-30T09:55:59.343Z,45.17
2016-07-30T09:56:59.350Z,44.78
2016-07-30T09:57:58.647Z,44.78
2016-07-30T09:59:00.239Z,45.07
2016-07-30T09:59:58.660Z,44.98
2016-07-30T10:00:59.974Z,44.59
2016-07-30T10:01:58.678Z,44.2
2016-07-30T10:02:58.681Z,44.2
2016-07-30T10:03:58.686Z,44.3
2016-07-30T10:04:59.407Z,44.78
2016-07-30T10:05:59.408Z,44.78
2016-07-30T10:06:58.710Z,44.88
2016-07-30T10:07:59.421Z,44.86
2016-07-30T10:08:59.426Z,44.68
2016-07-30T10:10:00.241Z,44.88
2016-07-30T10:10:59.444Z,44.68
2016-07-30T10:11:59.946Z,44.78
2016-07-30T10:12:59.452Z,44.78
2016-07-30T10:13:59.458Z,45.07
2016-07-30T10:14:58.758Z,44.98
2016-07-30T10:15:59.470Z,44.98
2016-07-30T10:16:58.769Z,45.07
2016-07-30T10:17:59.485Z,44.68
2016-07-30T10:18:59.493Z,44.4
2016-07-30T10:19:59.495Z,44.4
2016-07-30T10:20:58.798Z,45.07
2016-07-30T10:21:59.510Z,44.88
2016-07-30T10:23:00.468Z,44.59
2016-07-30T10:23:59.523Z,44.98
2016-07-30T10:24:59.527Z,44.88
2016-07-30T10:25:59.534Z,44.68
2016-07-30T10:26:58.837Z,45.17
2016-07-30T10:27:59.549Z,44.88
2016-07-30T10:28:59.554Z,45.17
2016-07-30T10:29:58.854Z,45.07
2016-07-30T10:30:59.573Z,45.07
2016-07-30T10:31:59.590Z,44.98
2016-07-30T10:32:59.591Z,45.17
2016-07-30T10:33:58.881Z,44.98
2016-07-30T10:34:59.611Z,45.07
2016-07-30T10:35:58.894Z,45.07
2016-07-30T10:36:58.900Z,44.98
2016-07-30T10:37:59.619Z,45.07
2016-07-30T10:38:59.623Z,44.98
2016-07-30T10:39:58.920Z,45.17
2016-07-30T10:40:58.928Z,44.98
2016-07-30T10:41:59.644Z,45.07
2016-07-30T10:42:59.649Z,45.37
2016-07-30T10:43:59.654Z,45.27
2016-07-30T10:44:59.007Z,45.17
2016-07-30T10:45:59.081Z,45.17
2016-07-30T10:46:59.721Z,44.78
2016-07-30T10:47:59.680Z,44.98
2016-07-30T10:48:59.030Z,45.17
2016-07-30T10:49:59.692Z,45.37
2016-07-30T10:50:59.706Z,44.78
2016-07-30T10:51:59.710Z,44.88
2016-07-30T10:52:59.006Z,44.98
2016-07-30T10:53:59.015Z,45.27
2016-07-30T10:54:59.728Z,45.27
2016-07-30T10:55:59.023Z,44.98
2016-07-30T10:56:59.737Z,45.07
2016-07-30T10:57:59.036Z,45.07
2016-07-30T10:58:59.042Z,44.98
2016-07-30T10:59:59.755Z,44.88
2016-07-30T11:00:59.762Z,45.37
2016-07-30T11:01:59.767Z,45.07
2016-07-30T11:02:59.774Z,45.17
2016-07-30T11:03:59.078Z,44.88
2016-07-30T11:04:59.789Z,44.78
2016-07-30T11:05:59.085Z,45.07
2016-07-30T11:07:00.903Z,45.37
2016-07-30T11:07:59.807Z,45.07
2016-07-30T11:08:59.813Z,44.88
2016-07-30T11:09:59.821Z,45.07
2016-07-30T11:10:59.121Z,44.68
2016-07-30T11:11:59.829Z,44.88
2016-07-30T11:12:59.132Z,44.98
2016-07-30T11:13:59.844Z,45.17
2016-07-30T11:14:59.144Z,45.37
2016-07-30T11:15:59.400Z,44.98
2016-07-30T11:16:59.156Z,44.98
2016-07-30T11:17:59.166Z,45.17
2016-07-30T11:18:59.878Z,44.88
2016-07-30T11:19:59.883Z,45.07
2016-07-30T11:20:59.283Z,45.27
2016-07-30T11:21:59.895Z,45.07
2016-07-30T11:22:59.194Z,45.17
2016-07-30T11:23:59.202Z,45.07
2016-07-30T11:25:14.085Z,45.07
2016-07-30T11:25:59.970Z,45.37
2016-07-30T11:26:59.371Z,45.27
2016-07-30T11:27:59.277Z,45.17
2016-07-30T11:29:01.067Z,45.17
2016-07-30T11:29:59.946Z,44.68
2016-07-30T11:30:59.245Z,45.17
2016-07-30T11:31:59.960Z,44.68
2016-07-30T11:32:59.968Z,44.98
2016-07-30T11:33:59.972Z,44.59
2016-07-30T11:34:59.272Z,45
2016-07-30T11:35:59.282Z,44.88
2016-07-30T11:36:59.287Z,45.37
2016-07-30T11:38:00.050Z,45.17
2016-07-30T11:38:59.299Z,44.98
2016-07-30T11:39:59.308Z,45.27
2016-07-30T11:41:00.020Z,45.07
2016-07-30T11:42:00.026Z,45.27
2016-07-30T11:43:00.030Z,45.27
2016-07-30T11:44:00.038Z,45.07
2016-07-30T11:45:00.045Z,45.07
2016-07-30T11:46:00.052Z,45.07
2016-07-30T11:46:59.352Z,44.88
2016-07-30T11:47:59.364Z,45.47
2016-07-30T11:48:59.965Z,45.56
2016-07-30T11:49:59.423Z,44.88
2016-07-30T11:51:00.136Z,45.27
2016-07-30T11:52:00.142Z,45.27
2016-07-30T11:52:59.392Z,44.88
2016-07-30T11:53:59.447Z,45.07
2016-07-30T11:54:59.403Z,44.88
2016-07-30T11:55:59.411Z,45.17
2016-07-30T11:56:59.420Z,45.17
2016-07-30T11:58:00.132Z,44.98
2016-07-30T11:58:59.432Z,45.07
2016-07-30T12:00:00.088Z,45.17
2016-07-30T12:00:59.445Z,45.27
2016-07-30T12:01:59.451Z,44.88
2016-07-30T12:02:59.455Z,45.07
2016-07-30T12:04:00.168Z,45.17
2016-07-30T12:05:00.175Z,44.68
2016-07-30T12:05:59.475Z,45.17
2016-07-30T12:07:00.188Z,45.07
2016-07-30T12:08:00.194Z,45.27
2016-07-30T12:09:00.201Z,45.07
2016-07-30T12:09:59.504Z,44.68
2016-07-30T12:11:00.256Z,44.98
2016-07-30T12:12:00.218Z,44.98
2016-07-30T12:13:00.226Z,44.98
2016-07-30T12:13:59.525Z,45.07
2016-07-30T12:15:00.237Z,45.07
2016-07-30T12:15:59.538Z,45.07
2016-07-30T12:17:00.253Z,45.17
2016-07-30T12:18:00.264Z,45.07
2016-07-30T12:18:59.708Z,45.07
2016-07-30T12:19:59.562Z,45.27
2016-07-30T12:20:59.570Z,45.07
2016-07-30T12:22:00.483Z,44.88
2016-07-30T12:22:59.581Z,45.47
2016-07-30T12:24:00.298Z,45.17
2016-07-30T12:25:00.304Z,44.98
2016-07-30T12:26:00.308Z,44.98
2016-07-30T12:26:59.610Z,44.88
2016-07-30T12:27:59.619Z,45.27
2016-07-30T12:28:59.621Z,44.68
2016-07-30T12:29:59.627Z,45.17
2016-07-30T12:31:00.342Z,45.07
2016-07-30T12:31:59.641Z,44.88
2016-07-30T12:33:00.748Z,44.98
2016-07-30T12:34:00.364Z,45.17
2016-07-30T12:35:00.367Z,44.88
2016-07-30T12:36:00.373Z,44.78
2016-07-30T12:37:00.382Z,44.88
2016-07-30T12:38:00.389Z,45.07
2016-07-30T12:38:59.685Z,45.27
2016-07-30T12:40:59.704Z,45.37
2016-07-30T12:42:00.414Z,45.27
2016-07-30T12:42:59.712Z,45.37
2016-07-30T12:44:01.083Z,45.27
2016-07-30T12:44:59.728Z,44.49
2016-07-30T12:45:59.934Z,44.68
2016-07-30T12:46:59.738Z,44.88
2016-07-30T12:48:00.453Z,45.1
2016-07-30T12:49:00.460Z,44.98
2016-07-30T12:49:59.759Z,45.1
2016-07-30T12:51:00.468Z,45.29
2016-07-30T12:52:00.479Z,44.78
2016-07-30T12:53:00.486Z,44.88
2016-07-30T12:54:00.493Z,45.07
2016-07-30T12:56:00.506Z,44.9
2016-07-30T12:57:00.660Z,45.07
2016-07-30T12:57:59.812Z,44.98
2016-07-30T12:58:59.818Z,45.1
2016-07-30T13:00:00.534Z,45.07
2016-07-30T13:00:59.834Z,44.61
2016-07-30T13:01:59.840Z,45.1
2016-07-30T13:02:59.849Z,45.1
2016-07-30T13:04:00.562Z,44.98
2016-07-30T13:05:00.570Z,44.98
2016-07-30T13:05:59.866Z,45.17
2016-07-30T13:06:59.875Z,45.17
2016-07-30T13:08:01.588Z,44.98
2016-07-30T13:08:59.887Z,44.88